Time;durP1;ratioP1;P1;durP2;ratioP2;P2;SDS_P1;SDS_P2;PMS_P1;PMS_P2;Temp;Humidity;BMP_temperature;BMP_pressure;BME280_temperature;BME280_humidity;BME280_pressure;Samples;Min_cycle;Max_cycle;Signal;HPM_P1;HPM_P2
2023/07/14 00:00:52;;;;;;;10.90;6.83;;;;;;;27.17;100.00;101039.38;2073030;28;20197;-64
2023/07/14 00:01:53;;;;;;;11.43;6.97;;;;;;;27.08;100.00;101040.50;2072163;28;20201;-64
2023/07/14 00:02:54;;;;;;;8.63;7.03;;;;;;;26.30;100.00;100937.53;2075370;28;20256;-65
2023/07/14 00:03:56;;;;;;;9.20;7.10;;;;;;;26.95;100.00;101031.09;2081310;28;20205;-64
2023/07/14 00:04:56;;;;;;;10.40;7.27;;;;;;;26.86;100.00;101037.94;2080632;28;20206;-64
2023/07/14 00:05:56;;;;;;;13.97;8.10;;;;;;;26.85;100.00;101047.00;2081794;28;20180;-64
2023/07/14 00:06:57;;;;;;;10.97;7.03;;;;;;;26.85;100.00;101047.78;2080655;28;20292;-64
2023/07/14 00:07:58;;;;;;;10.70;7.30;;;;;;;26.11;100.00;100950.91;2076951;28;20630;-64
2023/07/14 00:09:00;;;;;;;13.70;7.40;;;;;;;26.70;100.00;101058.81;2080835;28;20247;-64
2023/07/14 00:10:00;;;;;;;12.10;8.00;;;;;;;26.66;100.00;101058.31;2076620;28;20271;-64
2023/07/14 00:11:01;;;;;;;14.73;8.07;;;;;;;26.63;100.00;101061.47;2072691;28;20233;-64
2023/07/14 00:12:01;;;;;;;12.20;7.80;;;;;;;26.63;100.00;101061.47;2072158;28;20177;-64
2023/07/14 00:13:04;;;;;;;12.13;7.43;;;;;;;26.66;100.00;101063.25;2074468;28;20606;-64
2023/07/14 00:14:05;;;;;;;10.60;7.60;;;;;;;26.60;100.00;101060.47;2073376;28;20208;-64
2023/07/14 00:15:06;;;;;;;10.30;7.70;;;;;;;25.95;100.00;100959.59;2082008;28;20185;-64
2023/07/14 00:16:29;;;;;;;12.70;7.60;;;;;;;26.56;100.00;101057.16;2080869;28;20201;-64
2023/07/14 00:17:30;;;;;;;14.63;7.90;;;;;;;26.52;100.00;101065.16;2073045;28;20170;-64
2023/07/14 00:18:30;;;;;;;11.40;7.63;;;;;;;26.54;100.00;101059.72;2079608;28;20177;-64
2023/07/14 00:19:31;;;;;;;9.97;7.50;;;;;;;26.55;100.00;101064.13;2081070;28;20200;-64
2023/07/14 00:20:32;;;;;;;11.37;7.23;;;;;;;26.60;100.00;101054.00;2080989;28;20431;-65
2023/07/14 00:21:33;;;;;;;11.53;7.27;;;;;;;26.67;100.00;101048.50;2074208;28;20229;-64
2023/07/14 00:22:34;;;;;;;11.07;7.13;;;;;;;26.74;100.00;101049.97;2076510;28;20185;-64
2023/07/14 00:23:34;;;;;;;12.40;7.03;;;;;;;26.73;100.00;101052.06;2077718;28;20213;-64
2023/07/14 00:24:34;;;;;;;11.90;6.90;;;;;;;26.79;100.00;101047.06;2077281;28;20182;-64
2023/07/14 00:25:36;;;;;;;14.73;7.30;;;;;;;26.82;100.00;101054.53;2083258;28;20224;-65
2023/07/14 00:26:36;;;;;;;9.57;6.60;;;;;;;26.88;100.00;101058.09;2081773;28;20187;-65
2023/07/14 00:27:37;;;;;;;11.27;6.50;;;;;;;26.92;100.00;101058.53;2081639;28;20208;-64
2023/07/14 00:28:38;;;;;;;10.03;6.63;;;;;;;26.97;100.00;101057.69;2080313;28;20716;-64
2023/07/14 00:29:39;;;;;;;9.53;6.90;;;;;;;26.39;100.00;100965.59;2081236;28;20181;-64
2023/07/14 00:30:39;;;;;;;12.20;6.90;;;;;;;26.99;100.00;101043.72;2080285;28;20286;-64
2023/07/14 00:31:40;;;;;;;9.87;6.57;;;;;;;26.95;100.00;101045.31;2080217;28;20322;-64
2023/07/14 00:32:40;;;;;;;11.83;7.20;;;;;;;26.94;100.00;101061.63;2080823;28;20192;-64
2023/07/14 00:33:43;;;;;;;12.43;6.50;;;;;;;26.82;100.00;101062.31;2080832;28;20271;-65
2023/07/14 00:34:44;;;;;;;10.77;6.73;;;;;;;26.95;100.00;101057.47;2081041;28;20177;-64
2023/07/14 00:35:47;;;;;;;9.40;6.97;;;;;;;26.85;100.00;101044.94;2081169;28;20201;-63
2023/07/14 00:36:48;;;;;;;9.80;6.60;;;;;;;26.97;100.00;101071.16;2073739;28;20213;-63
2023/07/14 00:37:50;;;;;;;12.63;7.17;;;;;;;26.94;100.00;101087.22;2080501;28;20208;-64
2023/07/14 00:38:50;;;;;;;11.50;6.70;;;;;;;26.96;100.00;101076.06;2081217;28;20254;-64
2023/07/14 00:39:50;;;;;;;11.10;7.07;;;;;;;26.95;100.00;101080.22;2080925;28;20185;-64
2023/07/14 00:40:51;;;;;;;11.13;7.07;;;;;;;26.94;100.00;101073.00;2080672;28;20320;-64
2023/07/14 00:41:52;;;;;;;12.17;6.80;;;;;;;26.94;100.00;101073.00;2076584;28;20205;-65
2023/07/14 00:42:57;;;;;;;11.47;7.10;;;;;;;26.93;100.00;101074.28;2073213;28;20328;-64
2023/07/14 00:43:58;;;;;;;10.80;6.87;;;;;;;26.96;100.00;101063.91;2080862;28;20177;-64
2023/07/14 00:44:58;;;;;;;9.83;6.93;;;;;;;26.92;100.00;101069.16;2081238;28;20224;-64
2023/07/14 00:45:59;;;;;;;10.43;6.70;;;;;;;26.91;100.00;101078.97;2081015;28;20185;-64
2023/07/14 00:46:59;;;;;;;13.40;7.17;;;;;;;26.83;100.00;101076.00;2081330;28;20708;-64
2023/07/14 00:48:04;;;;;;;16.55;7.57;;;;;;;26.84;100.00;101077.53;2074522;28;20189;-64
2023/07/14 00:49:34;;;;;;;12.03;6.80;;;;;;;26.94;100.00;101081.53;2072599;28;20320;-64
2023/07/14 00:50:41;;;;;;;11.77;7.07;;;;;;;26.93;100.00;101077.13;2073036;28;20564;-64
2023/07/14 00:51:43;;;;;;;10.27;6.77;;;;;;;26.95;100.00;101082.31;2072827;28;20189;-63
2023/07/14 00:52:46;;;;;;;10.05;6.22;;;;;;;26.96;100.00;101087.47;2079852;28;20205;-64
2023/07/14 00:53:46;;;;;;;11.32;6.47;;;;;;;26.98;100.00;101081.25;2080808;28;20217;-64
2023/07/14 00:54:51;;;;;;;11.00;6.82;;;;;;;26.42;100.00;101003.53;2075731;28;20225;-64
2023/07/14 00:56:10;;;;;;;10.00;6.35;;;;;;;26.89;100.00;101092.97;2072680;28;20632;-65
2023/07/14 00:57:16;;;;;;;10.13;6.50;;;;;;;26.83;100.00;101083.75;2073417;28;20211;-64
2023/07/14 00:58:23;;;;;;;9.90;6.40;;;;;;;26.81;100.00;101094.88;2080861;28;20201;-64
2023/07/14 00:59:34;;;;;;;11.20;6.63;;;;;;;26.58;100.00;101076.50;2075397;28;20655;-64
2023/07/14 01:00:35;;;;;;;11.47;6.93;;;;;;;26.74;100.00;101121.06;2072398;28;20201;-65
2023/07/14 01:01:35;;;;;;;11.07;6.30;;;;;;;26.74;100.00;101127.53;2072230;28;20286;-65
2023/07/14 01:02:35;;;;;;;9.63;6.13;;;;;;;26.70;100.00;101129.88;2076098;28;20189;-64
2023/07/14 01:03:41;;;;;;;11.27;6.13;;;;;;;26.69;100.00;101125.50;2077888;28;20307;-64
2023/07/14 01:05:05;;;;;;;9.63;6.70;;;;;;;25.99;100.00;101029.00;2074486;28;20169;-64
2023/07/14 01:06:13;;;;;;;14.60;6.40;;;;;;;26.28;100.00;101075.75;2072539;28;20259;-64
2023/07/14 01:07:15;;;;;;;11.60;6.40;;;;;;;26.60;100.00;101131.53;2076650;28;20184;-64
2023/07/14 01:08:16;;;;;;;8.43;6.17;;;;;;;26.60;100.00;101139.28;2080026;28;20200;-64
2023/07/14 01:09:16;;;;;;;9.23;6.43;;;;;;;26.58;100.00;101133.38;2080970;28;20698;-64
2023/07/14 01:10:21;;;;;;;12.87;7.43;;;;;;;26.61;100.00;101144.44;2079472;28;20238;-64
2023/07/14 01:11:34;;;;;;;10.67;6.30;;;;;;;26.63;100.00;101135.38;2072095;28;20235;-64
2023/07/14 01:12:39;;;;;;;9.23;6.60;;;;;;;26.61;100.00;101138.75;2073553;28;20174;-65
2023/07/14 01:13:39;;;;;;;9.50;6.43;;;;;;;26.61;100.00;101138.00;2080178;28;20220;-65
2023/07/14 01:14:44;;;;;;;10.67;6.13;;;;;;;25.92;100.00;101031.63;2081316;28;20254;-64
2023/07/14 01:15:45;;;;;;;10.20;6.10;;;;;;;26.61;100.00;101152.97;2072649;28;20581;-63
2023/07/14 01:16:47;;;;;;;8.97;5.80;;;;;;;26.55;100.00;101151.44;2079602;28;20208;-64
2023/07/14 01:17:50;;;;;;;10.00;6.30;;;;;;;26.49;100.00;101151.50;2074110;28;20320;-65
2023/07/14 01:18:51;;;;;;;8.33;6.03;;;;;;;26.45;100.00;101155.94;2077367;28;20196;-64
2023/07/14 01:19:55;;;;;;;12.87;6.50;;;;;;;26.36;100.00;101157.03;2080304;28;20195;-64
2023/07/14 01:20:55;;;;;;;10.93;6.77;;;;;;;25.67;100.00;101053.50;2076511;28;20205;-65
2023/07/14 01:22:09;;;;;;;12.20;6.47;;;;;;;26.30;100.00;101161.25;2072376;28;20233;-65
2023/07/14 01:23:23;;;;;;;10.27;6.20;;;;;;;26.23;100.00;101156.88;2072711;28;20647;-64
2023/07/14 01:24:32;;;;;;;9.73;6.60;;;;;;;26.11;100.00;101158.25;2080574;28;20200;-64
2023/07/14 01:25:41;;;;;;;10.80;6.27;;;;;;;26.09;100.00;101169.38;2076298;28;20276;-65
2023/07/14 01:26:41;;;;;;;7.67;6.10;;;;;;;26.04;100.00;101177.94;2074835;28;20652;-64
2023/07/14 01:27:41;;;;;;;9.77;6.33;;;;;;;26.00;100.00;101178.22;2080640;28;20181;-65
2023/07/14 01:28:42;;;;;;;8.93;6.43;;;;;;;25.94;100.00;101182.41;2075421;28;20192;-64
2023/07/14 01:29:43;;;;;;;9.03;6.07;;;;;;;25.89;100.00;101181.09;2075913;28;20651;-64
2023/07/14 01:30:44;;;;;;;11.70;6.17;;;;;;;25.90;100.00;101184.72;2080417;28;20605;-64
2023/07/14 01:31:45;;;;;;;9.63;6.10;;;;;;;25.92;100.00;101191.44;2072406;28;20185;-64
2023/07/14 01:32:48;;;;;;;9.43;5.70;;;;;;;25.88;100.00;101181.63;2079224;28;20181;-65
2023/07/14 01:33:52;;;;;;;11.40;6.00;;;;;;;25.92;100.00;101193.50;2078195;28;20197;-64
2023/07/14 01:34:55;;;;;;;11.60;5.93;;;;;;;25.91;100.00;101204.09;2078431;28;20193;-64
2023/07/14 01:36:00;;;;;;;10.70;6.00;;;;;;;25.94;100.00;101213.66;2075697;28;20219;-65
2023/07/14 01:37:01;;;;;;;10.43;6.00;;;;;;;25.95;100.00;101229.38;2072732;28;20229;-65
2023/07/14 01:38:02;;;;;;;10.43;6.40;;;;;;;24.85;100.00;101059.56;2083567;28;20203;-65
2023/07/14 01:39:03;;;;;;;10.93;6.23;;;;;;;25.91;100.00;101217.50;2085693;28;20183;-64
2023/07/14 01:40:15;;;;;;;11.37;6.43;;;;;;;25.76;100.00;101217.06;2073644;28;20316;-64
2023/07/14 01:41:16;;;;;;;8.87;5.37;;;;;;;25.89;100.00;101229.38;2074151;28;20644;-64
2023/07/14 01:42:17;;;;;;;11.33;5.97;;;;;;;25.88;100.00;101244.88;2080207;28;20173;-64
2023/07/14 01:43:18;;;;;;;8.17;5.03;;;;;;;25.78;100.00;101249.31;2081563;28;20386;-64
2023/07/14 01:44:20;;;;;;;10.53;4.60;;;;;;;25.74;100.00;101236.69;2079492;28;20200;-65
2023/07/14 01:45:23;;;;;;;8.17;4.43;;;;;;;25.72;100.00;101242.09;2073370;28;20208;-65
2023/07/14 01:46:24;;;;;;;11.33;4.97;;;;;;;24.56;100.00;101075.06;2072379;28;20719;-63
2023/07/14 01:47:25;;;;;;;10.37;4.60;;;;;;;25.51;100.00;101224.63;2077666;28;20582;-64
2023/07/14 01:48:31;;;;;;;12.67;4.60;;;;;;;25.68;100.00;101248.03;2076668;28;20193;-64
2023/07/14 01:49:46;;;;;;;11.07;5.53;;;;;;;24.57;100.00;101079.44;2080427;28;20197;-64
2023/07/14 01:50:58;;;;;;;9.40;4.63;;;;;;;25.72;100.00;101259.91;2080167;28;20231;-64
2023/07/14 01:52:02;;;;;;;10.00;4.80;;;;;;;25.78;100.00;101263.50;2075049;28;20201;-65
2023/07/14 01:53:08;;;;;;;11.33;4.57;;;;;;;25.56;100.00;101223.84;2072276;28;20250;-63
2023/07/14 01:54:45;;;;;;;12.30;5.07;;;;;;;25.93;100.00;101266.81;2078060;28;20204;-64
2023/07/14 01:55:46;;;;;;;12.67;4.67;;;;;;;25.96;100.00;101268.63;2080922;28;20201;-65
2023/07/14 01:56:49;;;;;;;10.73;4.50;;;;;;;25.98;100.00;101274.53;2080412;28;20201;-63
2023/07/14 01:57:55;;;;;;;11.63;4.70;;;;;;;26.00;100.00;101280.47;2079974;28;20220;-64
2023/07/14 01:59:07;;;;;;;9.03;4.20;;;;;;;26.05;100.00;101278.91;2078187;28;20192;-64
2023/07/14 02:00:11;;;;;;;7.87;4.50;;;;;;;26.03;100.00;101296.47;2080153;28;20224;-64
2023/07/14 02:01:12;;;;;;;9.37;4.90;;;;;;;26.03;100.00;101295.69;2080054;28;20189;-64
2023/07/14 02:02:22;;;;;;;8.43;4.80;;;;;;;26.05;100.00;101288.19;2078577;28;20220;-64
2023/07/14 02:03:46;;;;;;;11.27;4.53;;;;;;;26.02;100.00;101294.13;2079714;28;20201;-64
2023/07/14 02:04:49;;;;;;;9.77;4.60;;;;;;;26.00;100.00;101323.06;2073508;28;20634;-63
2023/07/14 02:05:49;;;;;;;40.23;6.90;;;;;;;26.02;100.00;101309.13;2072109;28;20686;-64
2023/07/14 02:06:49;;;;;;;10.00;4.30;;;;;;;25.99;100.00;101303.72;2077158;28;20590;-64
2023/07/14 02:07:51;;;;;;;9.93;4.13;;;;;;;26.05;100.00;101315.81;2080012;28;20184;-63
2023/07/14 02:08:52;;;;;;;12.93;5.13;;;;;;;26.02;100.00;101331.06;2079154;28;20185;-63
2023/07/14 02:09:52;;;;;;;11.13;4.47;;;;;;;25.88;100.00;101303.72;2079029;28;20209;-64
2023/07/14 02:10:53;;;;;;;11.70;4.70;;;;;;;26.06;100.00;101315.28;2079213;28;20207;-64
2023/07/14 02:11:58;;;;;;;14.70;4.93;;;;;;;26.10;100.00;101318.63;2072292;28;20181;-64
2023/07/14 02:13:01;;;;;;;10.27;4.63;;;;;;;26.13;100.00;101322.50;2077434;28;20189;-64
2023/07/14 02:14:02;;;;;;;11.13;4.63;;;;;;;26.10;100.00;101324.31;2079403;28;20197;-63
2023/07/14 02:15:10;;;;;;;10.53;4.70;;;;;;;26.11;100.00;101322.25;2078505;28;20572;-64
2023/07/14 02:16:15;;;;;;;15.10;4.97;;;;;;;25.50;100.00;101248.66;2079239;28;20650;-64
2023/07/14 02:17:30;;;;;;;12.97;4.80;;;;;;;26.11;100.00;101331.53;2080809;28;20185;-64
2023/07/14 02:18:31;;;;;;;10.40;4.73;;;;;;;26.12;100.00;101343.69;2080356;28;20568;-65
2023/07/14 02:19:32;;;;;;;11.60;4.67;;;;;;;26.15;100.00;101328.44;2080217;28;20197;-63
2023/07/14 02:20:38;;;;;;;9.97;4.80;;;;;;;26.21;100.00;101337.69;2079722;28;20226;-64
2023/07/14 02:21:41;;;;;;;9.93;4.47;;;;;;;25.63;100.00;101228.97;2077231;28;20185;-64
2023/07/14 02:22:42;;;;;;;10.90;4.77;;;;;;;26.18;100.00;101327.38;2071390;28;20219;-64
2023/07/14 02:23:43;;;;;;;9.27;4.80;;;;;;;26.25;100.00;101336.13;2072280;28;20182;-64
2023/07/14 02:24:46;;;;;;;9.37;4.67;;;;;;;25.95;100.00;101283.34;2081030;28;20181;-65
2023/07/14 02:25:58;;;;;;;9.17;4.77;;;;;;;26.31;100.00;101330.41;2080446;28;20181;-64
2023/07/14 02:27:02;;;;;;;7.97;4.13;;;;;;;25.77;100.00;101256.28;2072868;28;20166;-64
2023/07/14 02:28:03;;;;;;;9.97;4.60;;;;;;;26.33;100.00;101333.50;2079566;28;20189;-63
2023/07/14 02:29:09;;;;;;;8.10;4.30;;;;;;;26.36;100.00;101338.16;2080383;28;20184;-64
2023/07/14 02:30:15;;;;;;;7.10;4.10;;;;;;;26.38;100.00;101342.00;2073247;28;20209;-64
2023/07/14 02:31:20;;;;;;;6.07;4.30;;;;;;;26.38;100.00;101347.69;2077859;28;20216;-64
2023/07/14 02:32:26;;;;;;;7.47;4.00;;;;;;;26.36;100.00;101346.66;2079740;28;20871;-63
2023/07/14 02:33:34;;;;;;;7.93;4.70;;;;;;;26.37;100.00;101345.38;2080055;28;20203;-64
2023/07/14 02:34:39;;;;;;;8.43;3.87;;;;;;;26.39;100.00;101342.75;2079595;28;20193;-64
2023/07/14 02:35:43;;;;;;;8.33;4.20;;;;;;;26.38;100.00;101342.00;2080288;28;20192;-64
2023/07/14 02:37:04;;;;;;;9.40;3.90;;;;;;;26.24;100.00;101326.06;2076054;28;20251;-63
2023/07/14 02:38:13;;;;;;;7.70;3.83;;;;;;;26.40;100.00;101339.41;2077761;28;20196;-64
2023/07/14 02:39:14;;;;;;;7.40;3.67;;;;;;;25.51;100.00;101201.94;2078829;28;20417;-64
2023/07/14 02:40:14;;;;;;;10.47;4.27;;;;;;;26.39;100.00;101342.75;2077108;28;20205;-64
2023/07/14 02:41:28;;;;;;;7.87;3.90;;;;;;;26.39;100.00;101357.75;2076688;28;20749;-64
2023/07/14 02:42:29;;;;;;;10.10;4.23;;;;;;;26.38;100.00;101344.06;2075294;28;20220;-63
2023/07/14 02:43:29;;;;;;;10.43;3.97;;;;;;;26.37;100.00;101339.69;2076672;28;20200;-64
2023/07/14 02:44:36;;;;;;;8.50;3.80;;;;;;;26.39;100.00;101345.59;2075474;28;20702;-64
2023/07/14 02:45:55;;;;;;;8.37;3.70;;;;;;;26.41;100.00;101345.88;2073929;28;20174;-65
2023/07/14 02:47:05;;;;;;;10.13;3.50;;;;;;;25.78;100.00;101251.34;2079877;28;20690;-65
2023/07/14 02:48:10;;;;;;;10.17;3.83;;;;;;;26.39;100.00;101342.75;2077008;28;20182;-63
2023/07/14 02:49:11;;;;;;;9.47;4.00;;;;;;;25.99;100.00;101278.16;2074692;28;21387;-63
2023/07/14 02:50:11;;;;;;;8.47;3.30;;;;;;;26.43;100.00;101346.88;2078133;28;20177;-64
2023/07/14 02:51:12;;;;;;;7.87;3.50;;;;;;;26.47;100.00;101355.13;2071957;28;20290;-65
2023/07/14 02:52:12;;;;;;;6.70;3.20;;;;;;;26.47;100.00;101352.28;2072339;28;20189;-64
2023/07/14 02:53:14;;;;;;;9.23;3.63;;;;;;;26.48;100.00;101362.34;2079867;28;20207;-64
2023/07/14 02:54:14;;;;;;;7.17;3.20;;;;;;;26.49;100.00;101346.84;2076440;28;20199;-64
2023/07/14 02:55:14;;;;;;;8.17;3.50;;;;;;;26.50;100.00;101352.00;2074657;28;20186;-65
2023/07/14 02:56:15;;;;;;;7.00;3.23;;;;;;;26.52;100.00;101348.66;2075804;28;20196;-64
2023/07/14 02:57:15;;;;;;;5.07;3.00;;;;;;;26.55;100.00;101353.25;2079604;28;20193;-63
2023/07/14 02:58:17;;;;;;;9.43;3.93;;;;;;;26.58;100.00;101352.25;2078584;28;20177;-64
2023/07/14 02:59:19;;;;;;;7.77;3.33;;;;;;;26.55;100.00;101361.78;2075099;28;20639;-64
2023/07/14 03:00:20;;;;;;;9.70;3.27;;;;;;;26.54;100.00;101363.88;2079722;28;20181;-64
2023/07/14 03:01:20;;;;;;;6.70;3.30;;;;;;;26.58;100.00;101369.31;2080565;28;20181;-64
2023/07/14 03:02:21;;;;;;;7.73;3.30;;;;;;;26.54;100.00;101365.94;2072714;28;20571;-64
2023/07/14 03:03:21;;;;;;;5.53;3.00;;;;;;;26.56;100.00;101375.50;2077801;28;20197;-65
2023/07/14 03:04:23;;;;;;;7.17;2.70;;;;;;;26.53;100.00;101376.53;2078889;28;20193;-64
2023/07/14 03:05:23;;;;;;;4.47;2.30;;;;;;;26.48;100.00;101379.41;2080410;28;20185;-65
2023/07/14 03:06:24;;;;;;;7.27;2.80;;;;;;;26.46;100.00;101379.16;2076424;28;20232;-64
2023/07/14 03:07:24;;;;;;;3.80;2.57;;;;;;;26.31;100.00;101356.75;2071651;28;20181;-64
2023/07/14 03:08:28;;;;;;;5.67;2.33;;;;;;;26.45;100.00;101392.59;2072667;28;20182;-64
2023/07/14 03:09:29;;;;;;;6.20;2.40;;;;;;;26.36;100.00;101397.81;2079741;28;20247;-64
2023/07/14 03:10:29;;;;;;;5.63;2.23;;;;;;;26.28;100.00;101388.28;2072376;28;20189;-64
2023/07/14 03:11:30;;;;;;;4.23;2.20;;;;;;;26.29;100.00;101396.28;2071383;28;20213;-64
2023/07/14 03:12:30;;;;;;;6.80;2.03;;;;;;;26.27;100.00;101395.28;2075442;28;20189;-64
2023/07/14 03:13:31;;;;;;;23.17;2.67;;;;;;;26.27;100.00;101389.59;2071621;28;20678;-64
2023/07/14 03:14:31;;;;;;;7.27;2.27;;;;;;;26.27;100.00;101406.63;2074706;28;20228;-63
2023/07/14 03:15:32;;;;;;;6.37;2.07;;;;;;;26.24;100.00;101396.31;2078634;28;20190;-64
2023/07/14 03:16:32;;;;;;;7.37;2.60;;;;;;;26.18;100.00;101382.13;2073683;28;20178;-64
2023/07/14 03:17:33;;;;;;;5.50;2.10;;;;;;;26.21;100.00;101386.00;2073242;28;20201;-65
2023/07/14 03:18:34;;;;;;;4.63;2.13;;;;;;;26.24;100.00;101397.09;2081310;28;20571;-64
2023/07/14 03:19:34;;;;;;;6.37;2.47;;;;;;;26.27;100.00;101396.06;2081360;28;20196;-63
2023/07/14 03:20:34;;;;;;;8.17;2.50;;;;;;;26.31;100.00;101393.69;2074934;28;20384;-64
2023/07/14 03:21:35;;;;;;;6.43;2.10;;;;;;;26.11;100.00;101356.34;2078710;28;20196;-65
2023/07/14 03:22:35;;;;;;;7.37;2.23;;;;;;;26.30;100.00;101385.72;2077535;28;20229;-64
2023/07/14 03:23:36;;;;;;;5.87;2.40;;;;;;;26.43;100.00;101397.25;2076142;28;20216;-64
2023/07/14 03:24:36;;;;;;;5.50;2.07;;;;;;;26.45;100.00;101403.97;2079250;28;20259;-64
2023/07/14 03:25:37;;;;;;;5.23;2.63;;;;;;;26.51;100.00;101401.88;2079825;28;20621;-64
2023/07/14 03:26:37;;;;;;;9.03;2.60;;;;;;;26.55;100.00;101404.44;2073552;28;20182;-64
2023/07/14 03:27:38;;;;;;;9.27;2.80;;;;;;;26.57;100.00;101396.94;2073244;28;20185;-64
2023/07/14 03:28:38;;;;;;;10.93;3.27;;;;;;;26.61;100.00;101397.44;2078979;28;20201;-64
2023/07/14 03:29:39;;;;;;;11.10;2.80;;;;;;;26.67;100.00;101391.75;2080267;28;20653;-64
2023/07/14 03:30:42;;;;;;;11.93;2.67;;;;;;;26.04;100.00;101292.31;2081708;28;20196;-64
2023/07/14 03:31:43;;;;;;;8.50;3.00;;;;;;;26.74;100.00;101391.97;2080090;28;20193;-64
2023/07/14 03:32:44;;;;;;;9.82;3.20;;;;;;;26.78;100.00;101388.84;2080775;28;20271;-64
2023/07/14 03:33:44;;;;;;;9.35;2.80;;;;;;;26.80;100.00;101389.84;2081267;28;20183;-64
2023/07/14 03:34:44;;;;;;;12.95;2.95;;;;;;;26.80;100.00;101387.00;2081493;28;20180;-65
2023/07/14 03:35:45;;;;;;;10.57;3.50;;;;;;;26.07;100.00;101273.47;2082247;28;20169;-64
2023/07/14 03:36:46;;;;;;;11.38;2.83;;;;;;;26.80;100.00;101389.84;2081739;28;20209;-64
2023/07/14 03:37:47;;;;;;;6.88;2.70;;;;;;;26.45;100.00;101341.44;2074786;28;20193;-64
2023/07/14 03:39:20;;;;;;;6.65;2.47;;;;;;;26.81;100.00;101393.47;2074748;28;20198;-64
2023/07/14 03:40:21;;;;;;;8.25;2.97;;;;;;;26.81;100.00;101396.31;2075803;28;20232;-64
2023/07/14 03:41:21;;;;;;;6.20;2.15;;;;;;;26.07;100.00;101296.97;2080591;28;20252;-64
2023/07/14 03:42:22;;;;;;;8.17;2.40;;;;;;;26.83;100.00;101402.25;2073635;28;20308;-64
2023/07/14 03:43:22;;;;;;;8.47;2.40;;;;;;;26.82;100.00;101415.69;2073526;28;20671;-64
2023/07/14 03:44:23;;;;;;;7.90;2.30;;;;;;;26.84;100.00;101415.16;2078078;28;20224;-64
2023/07/14 03:45:24;;;;;;;5.45;2.70;;;;;;;26.83;100.00;101405.88;2081298;28;20196;-64
2023/07/14 03:46:24;;;;;;;11.43;3.08;;;;;;;26.33;100.00;101330.66;2081719;28;20189;-65
2023/07/14 03:47:24;;;;;;;12.67;3.17;;;;;;;26.88;100.00;101421.34;2079990;28;20231;-64
2023/07/14 03:48:25;;;;;;;10.13;3.25;;;;;;;26.87;100.00;101431.94;2075037;28;20361;-65
2023/07/14 03:49:25;;;;;;;12.43;3.53;;;;;;;26.89;100.00;101425.72;2082127;28;20212;-64
2023/07/14 03:50:26;;;;;;;8.98;3.38;;;;;;;26.64;100.00;101392.78;2073548;28;20204;-64
2023/07/14 03:51:30;;;;;;;12.25;3.53;;;;;;;26.92;100.00;101421.84;2079239;28;20201;-64
2023/07/14 03:52:30;;;;;;;13.65;3.28;;;;;;;26.92;100.00;101424.69;2075711;28;20194;-65
2023/07/14 03:53:31;;;;;;;15.40;4.10;;;;;;;26.94;100.00;101425.72;2078029;28;20196;-64
2023/07/14 03:54:33;;;;;;;14.68;3.65;;;;;;;26.96;100.00;101433.69;2081327;28;20193;-64
2023/07/14 03:55:33;;;;;;;8.48;3.40;;;;;;;26.97;100.00;101427.47;2081050;28;20201;-64
2023/07/14 03:56:34;;;;;;;8.05;3.10;;;;;;;26.98;100.00;101426.19;2079378;28;20205;-65
2023/07/14 03:57:35;;;;;;;13.68;3.15;;;;;;;26.97;100.00;101435.25;2073330;28;20185;-64
2023/07/14 03:58:35;;;;;;;9.40;3.13;;;;;;;26.42;100.00;101358.78;2073660;28;20181;-65
2023/07/14 03:59:36;;;;;;;12.68;3.28;;;;;;;26.89;100.00;101434.25;2075941;28;20200;-64
2023/07/14 04:00:36;;;;;;;8.18;3.20;;;;;;;26.76;100.00;101402.81;2073847;28;20189;-64
2023/07/14 04:01:37;;;;;;;7.88;2.92;;;;;;;26.91;100.00;101431.66;2072085;28;20206;-65
2023/07/14 04:02:39;;;;;;;5.90;2.70;;;;;;;26.78;100.00;101415.22;2077466;28;20261;-64
2023/07/14 04:03:39;;;;;;;7.07;2.60;;;;;;;26.90;100.00;101435.81;2077657;28;20202;-65
2023/07/14 04:04:40;;;;;;;6.78;3.10;;;;;;;26.93;100.00;101446.13;2073504;28;20271;-63
2023/07/14 04:05:45;;;;;;;7.80;2.85;;;;;;;26.91;100.00;101438.13;2073262;28;20210;-64
2023/07/14 04:06:46;;;;;;;7.47;2.70;;;;;;;26.92;100.00;101448.19;2074147;28;20798;-64
2023/07/14 04:07:46;;;;;;;9.52;3.10;;;;;;;26.95;100.00;101437.84;2082005;28;20581;-64
2023/07/14 04:08:54;;;;;;;6.03;2.40;;;;;;;26.95;100.00;101438.63;2077071;28;20232;-64
2023/07/14 04:09:54;;;;;;;3.25;2.90;;;;;;;27.41;100.00;101435.72;2074555;28;20170;-63
2023/07/14 04:10:55;;;;;;;3.92;2.67;;;;;;;27.97;100.00;101451.03;2082008;28;20213;-63
2023/07/14 04:11:56;;;;;;;3.67;3.05;;;;;;;28.27;100.00;101454.59;2082731;28;20177;-63
2023/07/14 04:12:59;;;;;;;5.85;3.13;;;;;;;28.42;100.00;101449.25;2082686;28;20188;-64
2023/07/14 04:13:59;;;;;;;6.95;3.40;;;;;;;28.46;100.00;101448.94;2082581;28;20196;-65
2023/07/14 04:15:00;;;;;;;5.40;3.65;;;;;;;28.49;100.00;101445.00;2082579;28;20169;-64
2023/07/14 04:16:01;;;;;;;5.82;3.33;;;;;;;28.65;100.00;101444.81;2076326;28;20174;-63
2023/07/14 04:17:02;;;;;;;7.05;3.40;;;;;;;28.05;100.00;101343.69;2082470;28;20288;-63
2023/07/14 04:18:03;;;;;;;4.40;2.83;;;;;;;28.90;100.00;101454.06;2082146;28;20177;-64
2023/07/14 04:19:03;;;;;;;4.60;3.50;;;;;;;29.05;100.00;101455.16;2082610;28;20211;-64
2023/07/14 04:20:05;;;;;;;5.22;3.30;;;;;;;28.76;100.00;101409.66;2082564;28;20557;-64
2023/07/14 04:21:08;;;;;;;5.70;3.33;;;;;;;29.16;100.00;101466.41;2081891;28;20185;-64
2023/07/14 04:22:09;;;;;;;5.63;2.90;;;;;;;29.19;100.00;101465.34;2082028;28;20179;-64
2023/07/14 04:23:09;;;;;;;7.57;3.60;;;;;;;29.23;100.00;101465.03;2082272;28;20185;-64
2023/07/14 04:24:09;;;;;;;5.40;3.22;;;;;;;29.26;100.00;101459.00;2082232;28;20193;-64
2023/07/14 04:25:10;;;;;;;6.30;2.97;;;;;;;29.22;100.00;101461.38;2082472;28;20177;-64
2023/07/14 04:26:13;;;;;;;3.95;2.60;;;;;;;29.12;100.00;101440.25;2081699;28;20219;-64
2023/07/14 04:27:14;;;;;;;7.28;2.75;;;;;;;29.12;100.00;101450.91;2082250;28;20181;-64
2023/07/14 04:28:14;;;;;;;4.93;2.88;;;;;;;29.25;100.00;101462.38;2082521;28;20177;-65
2023/07/14 04:29:15;;;;;;;5.90;2.60;;;;;;;29.26;100.00;101464.69;2082425;28;20219;-64
2023/07/14 04:30:15;;;;;;;5.28;2.85;;;;;;;29.29;100.00;101471.41;2081632;28;20188;-64
2023/07/14 04:31:16;;;;;;;8.23;3.13;;;;;;;29.25;100.00;101446.03;2082221;28;20713;-64
2023/07/14 04:32:17;;;;;;;5.65;3.00;;;;;;;28.70;100.00;101360.47;2079388;28;20248;-63
2023/07/14 04:33:17;;;;;;;4.28;2.38;;;;;;;29.39;100.00;101461.91;2082047;28;20242;-64
2023/07/14 04:34:18;;;;;;;7.38;2.75;;;;;;;29.42;100.00;101465.75;2082024;28;20658;-64
2023/07/14 04:35:18;;;;;;;7.78;3.13;;;;;;;29.43;100.00;101465.19;2082405;28;20609;-64
2023/07/14 04:36:19;;;;;;;7.57;3.42;;;;;;;29.45;100.00;101470.38;2082413;28;20222;-64
2023/07/14 04:37:19;;;;;;;5.72;2.42;;;;;;;29.44;100.00;101468.84;2082328;28;20195;-64
2023/07/14 04:38:21;;;;;;;5.10;2.38;;;;;;;29.42;100.00;101466.50;2082165;28;20208;-63
2023/07/14 04:39:23;;;;;;;3.83;2.65;;;;;;;29.41;100.00;101467.06;2082062;28;20250;-64
2023/07/14 04:40:23;;;;;;;7.72;2.53;;;;;;;29.40;100.00;101471.22;2088928;28;20259;-63
2023/07/14 04:41:24;;;;;;;3.92;2.47;;;;;;;29.38;100.00;101459.59;2082351;28;20177;-64
2023/07/14 04:42:24;;;;;;;7.53;3.00;;;;;;;29.38;100.00;101476.72;2081879;28;20224;-64
2023/07/14 04:43:24;;;;;;;6.25;2.78;;;;;;;29.41;100.00;101470.69;2081795;28;20655;-64
2023/07/14 04:44:25;;;;;;;8.05;2.97;;;;;;;29.38;100.00;101457.50;2081830;28;20641;-64
2023/07/14 04:45:25;;;;;;;5.85;2.60;;;;;;;29.49;100.00;101470.84;2081732;28;20212;-64
2023/07/14 04:46:26;;;;;;;7.32;3.00;;;;;;;29.45;100.00;101470.38;2082095;28;20176;-63
2023/07/14 04:47:26;;;;;;;10.20;3.22;;;;;;;29.39;100.00;101479.03;2082162;28;20658;-64
2023/07/14 04:48:27;;;;;;;6.38;2.60;;;;;;;29.32;100.00;101473.94;2081850;28;20208;-64